Time;durP1;ratioP1;P1;durP2;ratioP2;P2;SDS_P1;SDS_P2;PMS_P1;PMS_P2;Temp;Humidity;BMP_temperature;BMP_pressure;BME280_temperature;BME280_humidity;BME280_pressure;Samples;Min_cycle;Max_cycle;Signal;HPM_P1;HPM_P2
2022/10/21 00:01:27;;;;;;;18.53;7.60;;;13.40;99.90;;;14.13;100.00;97802.81;5003615;28;20581;-86
2022/10/21 00:03:55;;;;;;;17.67;9.13;;;13.40;99.90;;;14.12;100.00;97803.84;5005661;28;20547;-86
2022/10/21 00:06:26;;;;;;;12.27;8.20;;;13.40;99.90;;;14.12;100.00;97806.47;5003750;28;20499;-85
2022/10/21 00:08:55;;;;;;;33.07;8.77;;;13.40;99.90;;;14.09;100.00;97809.53;5004298;28;20483;-86
2022/10/21 00:11:24;;;;;;;13.93;7.70;;;13.30;99.90;;;14.08;100.00;97810.56;5005281;28;20511;-86
2022/10/21 00:13:52;;;;;;;10.83;6.87;;;13.30;99.90;;;14.07;100.00;97815.00;5004070;28;20486;-86
2022/10/21 00:16:21;;;;;;;16.10;6.43;;;13.30;99.90;;;14.07;100.00;97808.94;5003026;28;20521;-85
2022/10/21 00:18:51;;;;;;;15.90;6.50;;;13.30;99.90;;;14.03;100.00;97808.56;5005689;28;20499;-86
2022/10/21 00:21:21;;;;;;;10.80;6.57;;;13.30;99.90;;;14.03;100.00;97799.88;5002499;28;21144;-86
2022/10/21 00:23:53;;;;;;;21.37;6.60;;;13.30;99.90;;;14.03;100.00;97794.59;5004140;28;20837;-87
2022/10/21 00:26:22;;;;;;;12.60;6.00;;;13.30;99.90;;;14.01;100.00;97794.84;5002135;28;20528;-87
2022/10/21 00:28:56;;;;;;;18.30;7.47;;;13.30;99.90;;;14.00;100.00;97800.28;5003308;28;20553;-86
2022/10/21 00:31:26;;;;;;;26.70;8.27;;;13.30;99.90;;;14.00;100.00;97787.16;5004995;28;20562;-85
2022/10/21 00:33:55;;;;;;;34.27;8.97;;;13.20;99.90;;;14.00;100.00;97787.16;5002593;28;20503;-86
2022/10/21 00:36:24;;;;;;;27.43;8.47;;;13.20;99.90;;;14.01;100.00;97791.41;5003924;28;20534;-84
2022/10/21 00:38:54;;;;;;;66.37;10.50;;;13.20;99.90;;;14.02;100.00;97785.91;5003224;28;20455;-85
2022/10/21 00:41:22;;;;;;;54.37;9.90;;;13.30;99.90;;;14.03;100.00;97781.47;5002014;28;20530;-86
2022/10/21 00:43:59;;;;;;;49.20;9.37;;;13.30;99.90;;;14.02;100.00;97774.63;5004768;28;20468;-86
2022/10/21 00:46:40;;;;;;;34.70;10.07;;;13.20;99.90;;;14.02;100.00;97771.97;5005376;28;20473;-86
2022/10/21 00:49:17;;;;;;;73.10;10.30;;;13.30;99.90;;;14.01;100.00;97775.63;5001725;28;20975;-85
2022/10/21 00:51:53;;;;;;;74.17;10.10;;;13.30;99.90;;;14.00;100.00;97771.38;5004300;28;20510;-85
2022/10/21 00:54:26;;;;;;;55.60;9.90;;;13.20;99.90;;;14.00;100.00;97760.84;5003601;28;20809;-86
2022/10/21 00:56:56;;;;;;;66.90;9.67;;;13.20;99.90;;;13.99;100.00;97751.34;5002368;28;21051;-85
2022/10/21 00:59:31;;;;;;;64.63;10.30;;;13.20;99.90;;;13.99;100.00;97744.28;5005697;28;20627;-86
2022/10/21 01:02:00;;;;;;;59.30;9.53;;;13.20;99.90;;;14.01;100.00;97725.66;5002790;28;20506;-85
2022/10/21 01:04:30;;;;;;;24.60;8.97;;;13.20;99.90;;;14.00;100.00;97737.19;5003633;28;20463;-86
2022/10/21 01:07:01;;;;;;;33.27;7.93;;;13.30;99.90;;;13.95;100.00;97731.81;5003651;28;20467;-86
2022/10/21 01:09:32;;;;;;;42.27;8.33;;;13.20;99.90;;;13.96;100.00;97734.19;5004076;28;21254;-85
2022/10/21 01:12:04;;;;;;;25.63;7.87;;;13.20;99.90;;;13.98;100.00;97741.88;5004033;28;20554;-86
2022/10/21 01:14:56;;;;;;;33.03;7.83;;;13.20;99.90;;;13.98;100.00;97726.09;5004206;28;20517;-86
2022/10/21 01:17:42;;;;;;;14.13;9.13;;;13.30;99.90;;;13.98;100.00;97720.84;5004773;28;20569;-85
2022/10/21 01:20:56;;;;;;;17.40;8.80;;;13.20;99.90;;;14.00;100.00;97718.78;5002928;28;20467;-85
2022/10/21 01:24:15;;;;;;;22.07;8.23;;;13.20;99.90;;;13.99;100.00;97727.69;5004361;28;20578;-85
2022/10/21 01:27:13;;;;;;;19.03;7.50;;;13.30;99.90;;;14.00;100.00;97742.44;5003155;28;20551;-87
2022/10/21 01:30:14;;;;;;;36.70;8.57;;;13.30;99.90;;;13.98;100.00;97745.31;5001201;28;20474;-85
2022/10/21 01:33:04;;;;;;;46.53;8.67;;;13.30;99.90;;;14.00;100.00;97739.81;5004765;28;21064;-85
2022/10/21 01:35:44;;;;;;;28.17;8.40;;;13.40;99.90;;;14.00;100.00;97730.13;5001282;28;20455;-86
2022/10/21 01:38:25;;;;;;;27.43;7.50;;;13.30;99.90;;;13.98;100.00;97736.63;5002663;28;20542;-85
2022/10/21 01:41:02;;;;;;;34.13;7.10;;;13.30;99.90;;;13.97;100.00;97735.00;5001935;28;20475;-86
2022/10/21 01:43:41;;;;;;;56.87;7.57;;;13.20;99.90;;;13.96;100.00;97721.06;5003995;28;20569;-85
2022/10/21 01:46:15;;;;;;;34.17;7.23;;;13.20;99.90;;;13.96;100.00;97717.63;5001072;28;20474;-85
2022/10/21 01:48:56;;;;;;;26.70;6.77;;;13.20;99.90;;;13.95;100.00;97710.78;5002652;28;20869;-85
2022/10/21 01:51:28;;;;;;;25.77;6.60;;;13.30;99.90;;;13.95;100.00;97706.28;5003055;28;20463;-85
2022/10/21 01:54:05;;;;;;;18.13;5.50;;;13.30;99.90;;;13.93;100.00;97712.78;5003052;28;20495;-86
2022/10/21 01:56:34;;;;;;;18.47;6.57;;;13.20;99.90;;;13.91;100.00;97709.59;5003701;28;21229;-85
2022/10/21 01:59:06;;;;;;;35.83;6.93;;;13.20;99.90;;;13.90;100.00;97721.91;5002924;28;20540;-86
2022/10/21 02:01:38;;;;;;;12.23;6.80;;;13.20;99.90;;;13.89;100.00;97722.13;5000743;28;20574;-86
2022/10/21 02:04:15;;;;;;;32.33;6.03;;;13.10;99.90;;;13.88;100.00;97715.28;4999958;28;20455;-86
2022/10/21 02:06:44;;;;;;;12.33;5.97;;;13.10;99.90;;;13.87;100.00;97713.66;5004259;28;20510;-85
2022/10/21 02:09:12;;;;;;;26.80;5.97;;;13.10;99.90;;;13.84;100.00;97711.47;5001228;28;20579;-85
2022/10/21 02:11:47;;;;;;;8.20;5.10;;;13.10;99.90;;;13.82;100.00;97710.88;5003001;28;20441;-86
2022/10/21 02:14:23;;;;;;;18.33;4.63;;;13.00;99.90;;;13.75;100.00;97713.56;5005756;28;20509;-85
2022/10/21 02:16:54;;;;;;;8.27;3.60;;;12.90;99.90;;;13.77;100.00;97708.91;5002227;28;20529;-85
2022/10/21 02:19:26;;;;;;;5.97;3.40;;;13.00;99.90;;;13.74;100.00;97700.66;5001092;28;20447;-87
2022/10/21 02:22:01;;;;;;;6.37;3.60;;;13.10;99.90;;;13.71;100.00;97701.06;5005842;28;21063;-86
2022/10/21 02:24:38;;;;;;;11.93;3.90;;;12.90;99.90;;;13.68;100.00;97697.03;5004098;28;20486;-85
2022/10/21 02:27:08;;;;;;;5.17;3.97;;;12.90;99.90;;;13.65;100.00;97694.03;5001792;28;20529;-85
2022/10/21 02:29:42;;;;;;;6.57;3.57;;;12.90;99.90;;;13.60;100.00;97692.88;5004474;28;20499;-86
2022/10/21 02:32:26;;;;;;;8.37;3.53;;;12.80;99.90;;;13.56;100.00;97683.81;5001811;28;20853;-84
2022/10/21 02:35:17;;;;;;;9.30;6.87;;;12.70;99.90;;;13.55;100.00;97673.50;5002480;28;20486;-86
2022/10/21 02:37:58;;;;;;;11.93;6.53;;;12.70;99.90;;;13.51;100.00;97665.25;5005499;28;20849;-85
2022/10/21 02:40:37;;;;;;;7.73;4.33;;;12.70;99.90;;;13.50;100.00;97666.25;5002769;28;20477;-85
2022/10/21 02:43:11;;;;;;;9.10;4.03;;;12.70;99.90;;;13.47;100.00;97656.19;5003785;28;21023;-85
2022/10/21 02:45:41;;;;;;;4.33;3.57;;;12.60;99.90;;;13.43;100.00;97648.97;5003158;28;20550;-86
2022/10/21 02:48:09;;;;;;;5.50;4.00;;;12.60;99.90;;;13.42;100.00;97648.16;5001663;28;20521;-86
2022/10/21 02:50:39;;;;;;;11.00;3.90;;;12.60;99.90;;;13.43;100.00;97633.22;5004630;28;21027;-85
2022/10/21 02:53:11;;;;;;;11.30;4.57;;;12.60;99.90;;;13.39;100.00;97630.22;5002857;28;20853;-86
2022/10/21 02:55:40;;;;;;;17.43;4.50;;;12.60;99.90;;;13.39;100.00;97629.41;5003107;28;20463;-85
2022/10/21 02:58:08;;;;;;;19.23;5.13;;;12.60;99.90;;;13.37;100.00;97616.47;5000417;28;21183;-86
2022/10/21 03:00:37;;;;;;;15.93;4.63;;;12.50;99.90;;;13.34;100.00;97614.28;5002154;28;20567;-86
2022/10/21 03:03:07;;;;;;;11.97;4.33;;;12.50;99.90;;;13.35;100.00;97615.09;5002346;28;20993;-84
2022/10/21 03:05:35;;;;;;;19.57;7.50;;;12.50;99.90;;;13.34;100.00;97616.09;5001369;28;21334;-81
2022/10/21 03:08:06;;;;;;;28.30;5.20;;;12.50;99.90;;;13.33;100.00;97610.03;5001973;28;20478;-87
2022/10/21 03:10:35;;;;;;;20.77;4.30;;;12.50;99.90;;;13.33;100.00;97615.28;5001907;28;20470;-81
2022/10/21 03:13:04;;;;;;;15.43;4.90;;;12.60;99.90;;;13.30;100.00;97613.09;5000955;28;20907;-87
2022/10/21 03:15:33;;;;;;;14.83;4.20;;;12.50;99.90;;;13.30;100.00;97607.03;5001838;28;20562;-87
2022/10/21 03:18:02;;;;;;;15.23;5.17;;;12.40;99.90;;;13.29;100.00;97611.50;5004289;28;21026;-87
2022/10/21 03:20:31;;;;;;;16.73;4.60;;;12.50;99.90;;;13.28;100.00;97623.03;5005880;28;20459;-86
2022/10/21 03:23:00;;;;;;;22.53;4.80;;;12.40;99.90;;;13.28;100.00;97625.63;5006217;28;20502;-86
2022/10/21 03:25:31;;;;;;;24.13;5.10;;;12.40;99.90;;;13.25;100.00;97620.81;5005117;28;20463;-86
2022/10/21 03:28:05;;;;;;;74.73;25.60;;;12.40;99.90;;;13.25;100.00;97627.88;5005489;28;20513;-86
2022/10/21 03:30:35;;;;;;;26.67;6.67;;;12.50;99.90;;;13.21;100.00;97624.88;5015846;28;20482;-90
2022/10/21 03:33:04;;;;;;;24.63;5.30;;;12.50;99.90;;;13.23;100.00;97625.47;5011701;28;20470;-89
2022/10/21 03:35:34;;;;;;;16.47;5.53;;;12.50;99.90;;;13.23;100.00;97606.28;5022758;28;20474;-88
2022/10/21 03:38:03;;;;;;;25.43;4.93;;;12.40;99.90;;;13.21;100.00;97611.75;5008021;28;20467;-89
2022/10/21 03:40:34;;;;;;;23.30;5.00;;;12.40;99.90;;;13.22;100.00;97610.75;5008970;28;21002;-88
2022/10/21 03:43:03;;;;;;;8.53;4.40;;;12.40;99.90;;;13.22;100.00;97613.38;5009540;28;20921;-88
2022/10/21 03:45:33;;;;;;;5.57;4.17;;;12.40;99.90;;;13.24;100.00;97602.66;5006000;28;20629;-86
2022/10/21 03:48:02;;;;;;;23.50;5.60;;;12.40;99.90;;;13.22;100.00;97605.50;5005197;28;20487;-81
2022/10/21 03:50:31;;;;;;;15.80;7.00;;;12.40;99.90;;;13.23;100.00;97614.97;5010042;28;20912;-89
2022/10/21 03:53:01;;;;;;;36.00;5.33;;;12.40;99.90;;;13.23;100.00;97611.53;5012604;28;20841;-88
2022/10/21 03:55:42;;;;;;;20.73;5.30;;;12.50;99.90;;;13.24;100.00;97613.16;5008578;28;21296;-88
2022/10/21 03:58:12;;;;;;;21.90;5.63;;;12.40;99.90;;;13.22;100.00;97618.63;5006617;28;20472;-87
2022/10/21 04:00:41;;;;;;;20.73;5.07;;;12.40;99.90;;;13.22;100.00;97613.38;5007508;28;20501;-90
2022/10/21 04:03:10;;;;;;;7.50;5.23;;;12.40;99.90;;;13.22;100.00;97613.38;5003625;28;20562;-88
2022/10/21 04:05:39;;;;;;;16.60;6.00;;;12.40;99.90;;;13.23;100.00;97612.34;5009621;28;20534;-90
2022/10/21 04:08:08;;;;;;;12.30;5.13;;;12.40;99.90;;;13.24;100.00;97606.06;5010109;28;20470;-80
2022/10/21 04:10:37;;;;;;;14.60;5.90;;;12.40;99.90;;;13.24;100.00;97613.94;5005162;28;20912;-89
2022/10/21 04:13:07;;;;;;;7.67;4.80;;;12.50;99.90;;;13.21;100.00;97603.88;5010564;28;20530;-88
2022/10/21 04:15:36;;;;;;;29.17;8.80;;;12.40;99.90;;;13.21;100.00;97596.00;5002482;28;20537;-82
2022/10/21 04:18:07;;;;;;;18.50;5.80;;;12.40;99.90;;;13.19;100.00;97600.66;5007411;28;20467;-89
2022/10/21 04:20:38;;;;;;;17.30;5.33;;;12.40;99.90;;;13.17;100.00;97591.38;5011128;28;20467;-89
2022/10/21 04:23:06;;;;;;;17.17;4.87;;;12.40;99.90;;;13.17;100.00;97592.19;5008198;28;20575;-87
2022/10/21 04:25:35;;;;;;;12.50;5.47;;;12.40;99.90;;;13.17;100.00;97597.44;5011425;28;20561;-89
2022/10/21 04:28:04;;;;;;;36.43;6.23;;;12.40;99.90;;;13.15;100.00;97593.44;5012013;28;20499;-89
2022/10/21 04:30:36;;;;;;;7.43;5.10;;;12.40;99.90;;;13.14;100.00;97592.63;5011420;28;20472;-90
2022/10/21 04:33:05;;;;;;;16.00;5.20;;;12.40;99.90;;;13.13;100.00;97591.00;5006467;28;21005;-80
2022/10/21 04:35:34;;;;;;;16.33;5.53;;;12.30;99.90;;;13.15;100.00;97593.44;5008847;28;20448;-90
2022/10/21 04:38:04;;;;;;;15.83;5.50;;;12.40;99.90;;;13.15;100.00;97589.00;5009044;28;20443;-90
2022/10/21 04:40:33;;;;;;;7.03;4.80;;;12.40;99.90;;;13.15;100.00;97586.38;5008492;28;20447;-87
2022/10/21 04:43:03;;;;;;;13.80;5.60;;;12.40;99.90;;;13.12;100.00;97581.53;5011328;28;20523;-88
2022/10/21 04:45:38;;;;;;;9.27;5.00;;;12.30;99.90;;;13.10;100.00;97586.19;5013965;28;21008;-87
2022/10/21 04:48:08;;;;;;;10.53;4.50;;;12.30;99.90;;;13.09;100.00;97584.59;5012822;28;20451;-87
2022/10/21 04:50:39;;;;;;;7.57;5.50;;;12.30;99.90;;;13.09;100.00;97584.59;5011044;28;20526;-87
2022/10/21 04:53:08;;;;;;;11.13;5.47;;;12.30;99.90;;;13.08;100.00;97589.00;5012580;28;20870;-88
2022/10/21 04:55:40;;;;;;;12.33;5.10;;;12.30;99.90;;;13.09;100.00;97574.06;5010879;28;20471;-89
2022/10/21 04:58:09;;;;;;;17.03;5.13;;;12.30;99.90;;;13.11;100.00;97577.31;5013547;28;20479;-88
2022/10/21 05:00:39;;;;;;;9.27;6.33;;;12.30;99.90;;;13.11;100.00;97572.06;5013135;28;20448;-87
2022/10/21 05:03:09;;;;;;;9.57;5.27;;;12.30;99.90;;;13.13;100.00;97574.44;5012853;28;20977;-88
2022/10/21 05:05:39;;;;;;;8.27;5.43;;;12.30;99.90;;;13.11;100.00;97564.19;5012105;28;20482;-87
2022/10/21 05:08:08;;;;;;;10.00;5.67;;;12.30;99.90;;;13.12;100.00;97571.03;5009475;28;20447;-88
2022/10/21 05:10:40;;;;;;;6.83;5.00;;;12.30;99.90;;;13.15;100.00;97568.00;5010220;28;20475;-87
2022/10/21 05:13:10;;;;;;;13.33;5.03;;;12.40;99.90;;;13.15;100.00;97562.75;5007881;28;20467;-88
2022/10/21 05:15:41;;;;;;;7.40;5.27;;;12.30;99.90;;;13.14;100.00;97550.63;5009192;28;20464;-88
2022/10/21 05:18:10;;;;;;;8.00;5.80;;;12.40;99.90;;;13.14;100.00;97545.38;5012159;28;20464;-87
2022/10/21 05:20:38;;;;;;;12.27;5.87;;;12.30;99.90;;;13.16;100.00;97550.38;5007879;28;20464;-88
2022/10/21 05:23:07;;;;;;;6.03;4.50;;;12.40;99.90;;;13.15;100.00;97554.06;5010250;28;20460;-88
2022/10/21 05:25:37;;;;;;;9.63;5.50;;;12.40;99.90;;;13.15;100.00;97551.44;5013668;28;20471;-87
2022/10/21 05:28:06;;;;;;;9.30;5.70;;;12.40;99.90;;;13.16;100.00;97547.75;5012326;28;20482;-87
2022/10/21 05:30:35;;;;;;;9.63;5.30;;;12.40;99.90;;;13.17;100.00;97541.50;5011848;28;20945;-87
2022/10/21 05:33:06;;;;;;;7.03;5.30;;;12.50;99.90;;;13.18;100.00;97541.31;5013708;28;20451;-87
2022/10/21 05:35:36;;;;;;;8.60;5.47;;;12.40;99.90;;;13.19;100.00;97550.75;5014593;28;20459;-87
2022/10/21 05:38:06;;;;;;;9.07;5.77;;;12.40;99.90;;;13.20;100.00;97549.75;5011266;28;20460;-86
2022/10/21 05:40:35;;;;;;;11.13;6.10;;;12.40;99.90;;;13.20;100.00;97544.50;5009410;28;20491;-87
2022/10/21 05:43:05;;;;;;;11.63;5.93;;;12.50;99.90;;;13.20;100.00;97534.00;5010350;28;20521;-87
2022/10/21 05:45:34;;;;;;;14.03;4.57;;;12.40;99.90;;;13.22;100.00;97531.19;5016326;28;20558;-87
2022/10/21 05:48:06;;;;;;;11.97;5.40;;;12.40;99.90;;;13.20;100.00;97539.25;5015592;28;20948;-88
2022/10/21 05:50:35;;;;;;;13.57;5.07;;;12.50;99.90;;;13.23;100.00;97535.38;5013482;28;20458;-87
2022/10/21 05:53:05;;;;;;;8.87;5.50;;;12.50;99.90;;;13.19;100.00;97547.38;5014326;28;20443;-86
2022/10/21 05:55:34;;;;;;;8.97;4.93;;;12.40;99.90;;;13.19;100.00;97542.88;5014423;28;20538;-88
2022/10/21 05:58:03;;;;;;;11.13;5.13;;;12.50;99.90;;;13.21;100.00;97534.81;5011762;28;20521;-87
2022/10/21 06:00:32;;;;;;;9.83;4.83;;;12.60;99.90;;;13.24;100.00;97544.88;5010005;28;20460;-87
2022/10/21 06:03:01;;;;;;;8.43;4.90;;;12.50;99.90;;;13.24;100.00;97548.31;5012544;28;20463;-86
2022/10/21 06:05:34;;;;;;;14.50;5.13;;;12.50;99.90;;;13.26;100.00;97553.34;5010167;28;20934;-86
2022/10/21 06:08:03;;;;;;;10.37;5.27;;;12.60;99.90;;;13.27;100.00;97537.38;5014284;28;20889;-87
2022/10/21 06:10:31;;;;;;;10.17;5.37;;;12.60;99.90;;;13.28;100.00;97541.63;5013085;28;20435;-88
2022/10/21 06:13:01;;;;;;;10.83;5.37;;;12.70;99.90;;;13.30;100.00;97539.56;5017745;28;20455;-87
2022/10/21 06:15:30;;;;;;;17.40;4.40;;;12.70;99.90;;;13.32;100.00;97531.47;5015486;28;20471;-87
2022/10/21 06:18:00;;;;;;;5.90;4.40;;;12.70;99.90;;;13.32;100.00;97547.25;5017411;28;20448;-87
2022/10/21 06:20:29;;;;;;;9.43;5.67;;;12.60;99.90;;;13.33;100.00;97549.63;5019257;28;20502;-85
2022/10/21 06:23:01;;;;;;;6.17;3.90;;;12.70;99.90;;;13.31;100.00;97546.44;5012305;28;20475;-87
2022/10/21 06:25:31;;;;;;;12.27;4.90;;;12.70;99.90;;;13.31;100.00;97535.94;5016226;28;20487;-86
2022/10/21 06:28:00;;;;;;;9.10;4.57;;;12.70;99.90;;;13.34;100.00;97548.63;5013227;28;20820;-87
2022/10/21 06:30:29;;;;;;;7.97;4.77;;;12.60;99.90;;;13.33;100.00;97549.63;5012983;28;20439;-86
2022/10/21 06:32:58;;;;;;;6.57;4.13;;;12.60;99.90;;;13.36;100.00;97556.28;5012726;28;20463;-88
2022/10/21 06:35:28;;;;;;;7.50;4.50;;;12.70;99.90;;;13.37;100.00;97552.63;5012862;28;20455;-88
2022/10/21 06:37:56;;;;;;;13.63;5.03;;;12.70;99.90;;;13.39;100.00;97561.91;5010569;28;20455;-88
2022/10/21 06:40:28;;;;;;;12.00;5.00;;;12.80;99.90;;;13.39;100.00;97569.78;5008876;28;20513;-86
2022/10/21 06:42:57;;;;;;;10.60;4.80;;;12.80;99.90;;;13.42;100.00;97571.19;5009543;28;20468;-87
2022/10/21 06:45:26;;;;;;;10.27;6.13;;;12.80;99.90;;;13.44;100.00;97575.19;5007259;28;20549;-87
2022/10/21 06:47:55;;;;;;;14.63;5.00;;;12.90;99.90;;;13.45;100.00;97573.38;5009222;28;20455;-86
2022/10/21 06:50:26;;;;;;;17.43;5.70;;;12.80;99.90;;;13.47;100.00;97582.63;5014363;28;20826;-88
2022/10/21 06:52:55;;;;;;;10.23;5.80;;;12.80;99.90;;;13.47;100.00;97589.69;5009672;28;20486;-88
2022/10/21 06:55:24;;;;;;;6.37;4.60;;;12.80;99.90;;;13.48;100.00;97589.50;5010157;28;20489;-86
2022/10/21 06:57:54;;;;;;;8.60;5.10;;;12.80;99.90;;;13.51;100.00;97598.75;5011504;28;20463;-87
2022/10/21 07:00:23;;;;;;;13.10;4.20;;;12.80;99.90;;;13.53;100.00;97599.38;5014545;28;20455;-87
2022/10/21 07:02:52;;;;;;;11.17;5.20;;;12.90;99.90;;;13.53;100.00;97597.56;5009701;28;20518;-88
2022/10/21 07:05:21;;;;;;;7.03;4.50;;;12.90;99.90;;;13.56;100.00;97599.75;5010578;28;20492;-86
2022/10/21 07:07:50;;;;;;;8.70;4.23;;;12.90;99.90;;;13.58;100.00;97599.50;5011022;28;20464;-85
2022/10/21 07:10:20;;;;;;;15.77;4.90;;;13.00;99.90;;;13.60;100.00;97600.09;5013275;28;20446;-87
2022/10/21 07:12:49;;;;;;;17.87;4.13;;;13.00;99.90;;;13.61;100.00;97602.50;5010711;28;20450;-87
2022/10/21 07:15:19;;;;;;;13.43;4.27;;;13.00;99.90;;;13.64;100.00;97601.25;5013029;28;20471;-87
2022/10/21 07:17:48;;;;;;;10.67;4.60;;;13.00;99.90;;;13.67;100.00;97602.66;5010794;28;20454;-87
2022/10/21 07:20:18;;;;;;;10.10;4.20;;;13.00;99.90;;;13.70;100.00;97607.50;5013952;28;20961;-87
2022/10/21 07:22:46;;;;;;;13.20;4.50;;;13.10;99.90;;;13.74;100.00;97606.03;5011763;28;20467;-87
2022/10/21 07:25:15;;;;;;;13.30;3.87;;;13.10;99.90;;;13.78;100.00;97615.09;5011868;28;20553;-87
2022/10/21 07:27:44;;;;;;;8.00;3.80;;;13.20;99.90;;;13.80;100.00;97610.41;5015349;28;20493;-86
2022/10/21 07:30:16;;;;;;;5.03;3.07;;;13.20;99.90;;;13.85;100.00;97607.94;5016341;28;20518;-87
2022/10/21 07:32:47;;;;;;;8.40;2.97;;;13.30;99.90;;;13.89;100.00;97611.72;5015505;28;20452;-87
2022/10/21 07:35:16;;;;;;;6.30;2.67;;;13.30;99.90;;;13.94;100.00;97610.06;5016126;28;20462;-87
2022/10/21 07:37:45;;;;;;;9.13;2.70;;;13.40;99.90;;;14.01;100.00;97615.25;5011556;28;20494;-87
2022/10/21 07:40:14;;;;;;;18.47;2.50;;;13.40;99.90;;;14.09;100.00;97617.59;5010088;28;20490;-86
2022/10/21 07:42:43;;;;;;;19.93;2.30;;;13.60;99.90;;;14.13;100.00;97618.72;5009705;28;20997;-87
2022/10/21 07:45:12;;;;;;;7.10;2.40;;;13.60;99.90;;;14.16;100.00;97615.66;5009488;28;21450;-86
2022/10/21 07:47:41;;;;;;;4.17;2.87;;;13.60;99.90;;;14.22;100.00;97606.09;5007085;28;20473;-87
2022/10/21 07:50:12;;;;;;;8.33;2.50;;;13.80;99.90;;;14.24;100.00;97612.75;5005424;28;20455;-86
2022/10/21 07:52:45;;;;;;;19.13;2.20;;;13.80;99.90;;;14.29;100.00;97610.28;5004997;28;20443;-87
2022/10/21 07:55:31;;;;;;;13.53;2.00;;;13.80;99.90;;;14.32;100.00;97620.34;5007530;28;20443;-87
2022/10/21 07:58:01;;;;;;;2.67;1.80;;;13.80;99.90;;;14.34;100.00;97615.69;5006992;28;20459;-87
2022/10/21 08:00:31;;;;;;;12.30;2.40;;;13.90;99.90;;;14.35;100.00;97611.22;5006921;28;21025;-86
2022/10/21 08:03:01;;;;;;;4.63;3.00;;;13.80;99.90;;;14.37;100.00;97620.50;5007449;28;20439;-86
2022/10/21 08:05:31;;;;;;;5.03;2.13;;;13.80;99.90;;;14.39;100.00;97615.84;5008512;28;20961;-87
2022/10/21 08:08:01;;;;;;;4.63;2.07;;;13.90;99.90;;;14.41;100.00;97626.94;5007022;28;20480;-87
2022/10/21 08:10:30;;;;;;;11.00;2.20;;;13.90;99.90;;;14.44;100.00;97626.47;5007187;28;20486;-86
2022/10/21 08:12:59;;;;;;;3.73;1.70;;;14.00;99.90;;;14.47;100.00;97633.94;5006812;28;20459;-86
2022/10/21 08:15:27;;;;;;;3.30;1.60;;;14.00;99.90;;;14.50;100.00;97630.06;5005688;28;20501;-88
2022/10/21 08:17:57;;;;;;;5.13;2.23;;;14.00;99.90;;;14.51;100.00;97632.47;5007960;28;20464;-86
2022/10/21 08:20:26;;;;;;;8.77;2.57;;;14.00;99.90;;;14.53;100.00;97640.16;5013362;28;20466;-86
2022/10/21 08:22:57;;;;;;;11.03;2.50;;;14.00;99.90;;;14.53;100.00;97635.69;5011310;28;20460;-87
2022/10/21 08:25:28;;;;;;;3.70;1.57;;;14.00;99.90;;;14.56;100.00;97637.88;5009645;28;20996;-86
2022/10/21 08:27:57;;;;;;;12.03;2.33;;;14.00;99.90;;;14.58;100.00;97638.44;5010797;28;20475;-87
2022/10/21 08:30:28;;;;;;;4.90;1.57;;;14.00;99.90;;;14.59;100.00;97639.25;5010642;28;20462;-87
2022/10/21 08:32:58;;;;;;;4.67;2.00;;;14.00;99.90;;;14.59;100.00;97634.81;5008093;28;20455;-87
2022/10/21 08:35:27;;;;;;;7.70;1.90;;;14.00;99.90;;;14.61;100.00;97638.00;5009038;28;20474;-79
2022/10/21 08:37:57;;;;;;;5.07;2.10;;;14.00;99.90;;;14.62;100.00;97641.44;5006262;28;20455;-83
2022/10/21 08:40:29;;;;;;;10.17;2.17;;;14.00;99.90;;;14.66;100.00;97644.44;5006689;28;20457;-82
2022/10/21 08:43:08;;;;;;;6.73;2.63;;;14.10;99.90;;;14.66;100.00;97639.16;5006945;28;20483;-87
2022/10/21 08:45:45;;;;;;;8.63;2.50;;;14.10;99.90;;;14.68;100.00;97650.28;5009763;28;20515;-87
2022/10/21 08:48:25;;;;;;;9.03;2.50;;;14.00;99.90;;;14.69;100.00;97649.25;5011447;28;20564;-86
2022/10/21 08:50:59;;;;;;;5.00;2.37;;;14.10;99.90;;;14.72;100.00;97654.06;5008076;28;20869;-88
2022/10/21 08:53:39;;;;;;;7.93;2.30;;;14.10;99.90;;;14.70;100.00;97654.31;5014767;28;20454;-87
2022/10/21 08:56:15;;;;;;;3.00;2.30;;;14.10;99.90;;;14.71;100.00;97649.84;5011166;28;20863;-88
2022/10/21 08:58:52;;;;;;;6.20;2.23;;;14.10;99.90;;;14.74;100.00;97654.66;5013569;28;20455;-87
2022/10/21 09:01:35;;;;;;;14.43;2.47;;;14.20;99.90;;;14.76;100.00;97655.22;5009890;28;20490;-88
2022/10/21 09:04:15;;;;;;;8.33;2.97;;;14.10;99.90;;;14.77;100.00;97659.47;5008963;28;20467;-88
2022/10/21 09:06:57;;;;;;;5.80;2.93;;;14.20;99.90;;;14.77;100.00;97662.09;5012278;28;20490;-87
2022/10/21 09:09:41;;;;;;;4.97;2.40;;;14.10;99.90;;;14.78;100.00;97666.34;5013395;28;20451;-87
2022/10/21 09:12:24;;;;;;;5.33;2.90;;;14.10;99.90;;;14.79;100.00;97668.75;5014000;28;20570;-88
2022/10/21 09:15:22;;;;;;;4.63;2.23;;;14.10;99.90;;;14.82;100.00;97678.06;5011787;28;20524;-87
2022/10/21 09:18:20;;;;;;;10.10;2.23;;;14.20;99.90;;;14.83;100.00;97679.63;5011922;28;21006;-88
2022/10/21 09:21:00;;;;;;;10.50;3.10;;;14.20;99.90;;;14.83;100.00;97683.06;5012920;28;20459;-87
2022/10/21 09:23:52;;;;;;;9.90;2.97;;;14.20;99.90;;;14.85;100.00;97677.59;5010402;28;20448;-88
2022/10/21 09:26:40;;;;;;;9.50;2.40;;;14.30;99.90;;;14.87;100.00;97680.81;5010646;28;20499;-88
2022/10/21 09:29:31;;;;;;;5.30;2.50;;;14.30;99.90;;;14.88;100.00;97677.97;5015143;28;20471;-88
2022/10/21 09:32:14;;;;;;;5.37;2.57;;;14.30;99.90;;;14.90;100.00;97680.34;5011260;28;20478;-87
2022/10/21 09:34:54;;;;;;;10.80;2.80;;;14.30;99.90;;;14.91;100.00;97685.41;5014250;28;20527;-87
2022/10/21 09:37:35;;;;;;;8.00;2.20;;;14.30;99.90;;;14.94;100.00;97689.41;5009444;28;20451;-87
2022/10/21 09:40:17;;;;;;;8.33;2.67;;;14.40;99.90;;;14.94;100.00;97684.97;5008696;28;20482;-77
2022/10/21 09:42:54;;;;;;;14.80;2.60;;;14.40;99.90;;;14.96;100.00;97687.38;5000244;28;20463;-77
2022/10/21 09:45:32;;;;;;;4.83;2.13;;;14.30;99.90;;;14.98;100.00;97680.84;5000165;28;20440;-88
2022/10/21 09:48:06;;;;;;;6.03;3.57;;;14.40;99.90;;;14.98;100.00;97678.22;5007784;28;20459;-87
2022/10/21 09:50:37;;;;;;;5.70;2.13;;;14.50;99.90;;;15.01;100.00;97663.78;5006106;28;20462;-88
2022/10/21 09:53:16;;;;;;;4.03;2.03;;;14.50;99.90;;;15.02;100.00;97676.75;5007559;28;20463;-87
2022/10/21 09:55:57;;;;;;;3.83;1.57;;;14.50;99.90;;;15.07;100.00;97657.63;5008699;28;20479;-87
2022/10/21 09:58:48;;;;;;;1.73;1.60;;;14.60;99.90;;;15.07;100.00;97647.09;5003842;28;20444;-88
2022/10/21 10:01:22;;;;;;;3.43;1.40;;;14.60;99.90;;;15.10;100.00;97644.81;5007938;28;20464;-86
2022/10/21 10:03:53;;;;;;;3.97;1.53;;;14.70;99.90;;;15.10;100.00;97636.91;5009204;28;20570;-86
2022/10/21 10:06:35;;;;;;;3.53;1.67;;;14.70;99.90;;;15.12;100.00;97636.69;5012182;28;21061;-87
2022/10/21 10:09:15;;;;;;;3.67;2.00;;;14.70;99.90;;;15.12;100.00;97628.78;5008186;28;20966;-88
2022/10/21 10:11:54;;;;;;;3.57;1.40;;;14.70;99.90;;;15.13;100.00;97629.59;5010626;28;20485;-87
2022/10/21 10:14:33;;;;;;;3.17;1.97;;;14.60;99.90;;;15.14;100.00;97642.53;5011981;28;20865;-87
2022/10/21 10:17:32;;;;;;;4.10;1.90;;;14.60;99.90;;;15.16;100.00;97645.75;5009667;28;20569;-88
2022/10/21 10:20:16;;;;;;;2.07;1.87;;;14.60;99.90;;;15.17;100.00;97639.44;4977460;28;20451;-87
2022/10/21 10:22:46;;;;;;;2.70;1.77;;;14.70;99.90;;;15.20;100.00;97661.91;5007088;28;20869;-87
2022/10/21 10:25:23;;;;;;;3.53;2.20;;;14.70;99.90;;;15.21;100.00;97666.94;5006930;28;20957;-86
2022/10/21 10:27:54;;;;;;;5.87;2.07;;;14.60;99.90;;;15.22;100.00;97671.19;5005593;28;20491;-86
2022/10/21 10:30:29;;;;;;;4.67;1.87;;;14.70;99.90;;;15.25;100.00;97670.72;5005366;28;20517;-87
2022/10/21 10:33:10;;;;;;;4.27;1.90;;;14.70;99.90;;;15.29;100.00;97673.72;5005083;28;20443;-87